sensor_id;sensor_type;location;lat;lon;timestamp;temperature;humidity
37412;DHT22;23278;52.110;6.050;2023-06-22T00:02:00;19.00;97.60
37412;DHT22;23278;52.110;6.050;2023-06-22T00:04:27;18.90;97.60
37412;DHT22;23278;52.110;6.050;2023-06-22T00:06:53;18.90;97.80
37412;DHT22;23278;52.110;6.050;2023-06-22T00:09:18;18.80;97.90
37412;DHT22;23278;52.110;6.050;2023-06-22T00:11:45;18.80;97.90
37412;DHT22;23278;52.110;6.050;2023-06-22T00:14:11;18.70;98.00
37412;DHT22;23278;52.110;6.050;2023-06-22T00:16:36;18.70;98.10
37412;DHT22;23278;52.110;6.050;2023-06-22T00:19:02;18.70;98.20
37412;DHT22;23278;52.110;6.050;2023-06-22T00:21:29;18.70;98.50
37412;DHT22;23278;52.110;6.050;2023-06-22T00:23:55;18.60;98.60
37412;DHT22;23278;52.110;6.050;2023-06-22T00:26:22;18.60;98.70
37412;DHT22;23278;52.110;6.050;2023-06-22T00:28:49;18.60;98.80
37412;DHT22;23278;52.110;6.050;2023-06-22T00:31:14;18.50;98.90
37412;DHT22;23278;52.110;6.050;2023-06-22T00:33:40;18.50;99.00
37412;DHT22;23278;52.110;6.050;2023-06-22T00:36:06;18.50;99.30
37412;DHT22;23278;52.110;6.050;2023-06-22T00:38:38;18.40;99.30
37412;DHT22;23278;52.110;6.050;2023-06-22T00:41:08;18.30;99.40
37412;DHT22;23278;52.110;6.050;2023-06-22T00:43:35;18.30;99.60
37412;DHT22;23278;52.110;6.050;2023-06-22T00:46:02;18.20;99.70
37412;DHT22;23278;52.110;6.050;2023-06-22T00:48:29;18.20;99.80
37412;DHT22;23278;52.110;6.050;2023-06-22T00:50:54;18.10;99.90
37412;DHT22;23278;52.110;6.050;2023-06-22T00:53:23;18.10;99.90
37412;DHT22;23278;52.110;6.050;2023-06-22T00:55:48;18.00;99.90
37412;DHT22;23278;52.110;6.050;2023-06-22T00:58:18;17.90;99.90
37412;DHT22;23278;52.110;6.050;2023-06-22T01:00:48;17.90;99.90
37412;DHT22;23278;52.110;6.050;2023-06-22T01:03:14;17.80;99.90
37412;DHT22;23278;52.110;6.050;2023-06-22T01:05:42;17.80;99.90
37412;DHT22;23278;52.110;6.050;2023-06-22T01:08:36;17.80;99.90
37412;DHT22;23278;52.110;6.050;2023-06-22T01:11:06;17.70;99.90
37412;DHT22;23278;52.110;6.050;2023-06-22T01:16:03;17.70;99.90
37412;DHT22;23278;52.110;6.050;2023-06-22T01:18:31;17.60;99.90
37412;DHT22;23278;52.110;6.050;2023-06-22T01:21:00;17.50;99.90
37412;DHT22;23278;52.110;6.050;2023-06-22T01:23:46;17.50;99.90
37412;DHT22;23278;52.110;6.050;2023-06-22T01:26:21;17.40;99.90
37412;DHT22;23278;52.110;6.050;2023-06-22T01:28:53;17.40;99.90
37412;DHT22;23278;52.110;6.050;2023-06-22T01:31:23;17.40;99.90
37412;DHT22;23278;52.110;6.050;2023-06-22T01:33:53;17.30;99.90
37412;DHT22;23278;52.110;6.050;2023-06-22T01:36:21;17.30;99.90
37412;DHT22;23278;52.110;6.050;2023-06-22T01:38:48;17.20;99.90
37412;DHT22;23278;52.110;6.050;2023-06-22T01:41:16;17.20;99.90
37412;DHT22;23278;52.110;6.050;2023-06-22T01:43:43;17.20;99.90
37412;DHT22;23278;52.110;6.050;2023-06-22T01:46:16;17.10;99.90
37412;DHT22;23278;52.110;6.050;2023-06-22T01:48:46;17.10;99.90
37412;DHT22;23278;52.110;6.050;2023-06-22T01:51:12;17.10;99.90
37412;DHT22;23278;52.110;6.050;2023-06-22T01:53:39;17.10;99.90
37412;DHT22;23278;52.110;6.050;2023-06-22T01:56:05;17.10;99.90
37412;DHT22;23278;52.110;6.050;2023-06-22T01:58:32;17.00;99.90
37412;DHT22;23278;52.110;6.050;2023-06-22T02:01:14;17.00;99.90
37412;DHT22;23278;52.110;6.050;2023-06-22T02:03:59;17.00;99.90
37412;DHT22;23278;52.110;6.050;2023-06-22T02:06:35;17.00;99.90
37412;DHT22;23278;52.110;6.050;2023-06-22T02:09:08;16.90;99.90
37412;DHT22;23278;52.110;6.050;2023-06-22T02:11:36;16.90;99.90
37412;DHT22;23278;52.110;6.050;2023-06-22T02:14:03;16.90;99.90
37412;DHT22;23278;52.110;6.050;2023-06-22T02:16:31;16.90;99.90
37412;DHT22;23278;52.110;6.050;2023-06-22T02:19:01;16.80;99.90
37412;DHT22;23278;52.110;6.050;2023-06-22T02:21:34;16.80;99.90
37412;DHT22;23278;52.110;6.050;2023-06-22T02:24:00;16.80;99.90
37412;DHT22;23278;52.110;6.050;2023-06-22T02:26:29;16.80;99.90
37412;DHT22;23278;52.110;6.050;2023-06-22T02:28:55;16.80;99.90
37412;DHT22;23278;52.110;6.050;2023-06-22T02:31:21;16.70;99.90
37412;DHT22;23278;52.110;6.050;2023-06-22T02:33:47;16.80;99.90
37412;DHT22;23278;52.110;6.050;2023-06-22T02:36:14;16.80;99.90
37412;DHT22;23278;52.110;6.050;2023-06-22T02:38:43;16.80;99.90
37412;DHT22;23278;52.110;6.050;2023-06-22T02:41:15;16.80;99.90
37412;DHT22;23278;52.110;6.050;2023-06-22T02:43:47;16.80;99.90
37412;DHT22;23278;52.110;6.050;2023-06-22T02:46:13;16.80;99.90
37412;DHT22;23278;52.110;6.050;2023-06-22T02:48:41;16.80;99.90
37412;DHT22;23278;52.110;6.050;2023-06-22T02:51:07;16.80;99.90
37412;DHT22;23278;52.110;6.050;2023-06-22T02:53:35;16.80;99.90
37412;DHT22;23278;52.110;6.050;2023-06-22T02:56:04;16.80;99.90
37412;DHT22;23278;52.110;6.050;2023-06-22T02:58:32;16.80;99.90
37412;DHT22;23278;52.110;6.050;2023-06-22T03:01:07;16.70;99.90
37412;DHT22;23278;52.110;6.050;2023-06-22T03:03:34;16.70;99.90
37412;DHT22;23278;52.110;6.050;2023-06-22T03:06:00;16.70;99.90
37412;DHT22;23278;52.110;6.050;2023-06-22T03:08:28;16.60;99.90
37412;DHT22;23278;52.110;6.050;2023-06-22T03:10:55;16.60;99.90
37412;DHT22;23278;52.110;6.050;2023-06-22T03:13:21;16.60;99.90
37412;DHT22;23278;52.110;6.050;2023-06-22T03:15:47;16.60;99.90
37412;DHT22;23278;52.110;6.050;2023-06-22T03:18:13;16.50;99.90
37412;DHT22;23278;52.110;6.050;2023-06-22T03:20:39;16.50;99.90
37412;DHT22;23278;52.110;6.050;2023-06-22T03:23:08;16.50;99.90
37412;DHT22;23278;52.110;6.050;2023-06-22T03:25:35;16.50;99.90
37412;DHT22;23278;52.110;6.050;2023-06-22T03:28:02;16.50;99.90
37412;DHT22;23278;52.110;6.050;2023-06-22T03:30:28;16.50;99.90
37412;DHT22;23278;52.110;6.050;2023-06-22T03:32:54;16.50;99.90
37412;DHT22;23278;52.110;6.050;2023-06-22T03:35:20;16.50;99.90
37412;DHT22;23278;52.110;6.050;2023-06-22T03:37:47;16.50;99.90
37412;DHT22;23278;52.110;6.050;2023-06-22T03:40:13;16.40;99.90
37412;DHT22;23278;52.110;6.050;2023-06-22T03:42:40;16.40;99.90
37412;DHT22;23278;52.110;6.050;2023-06-22T03:45:06;16.40;99.90
37412;DHT22;23278;52.110;6.050;2023-06-22T03:47:33;16.30;99.90
37412;DHT22;23278;52.110;6.050;2023-06-22T03:49:59;16.30;99.90
37412;DHT22;23278;52.110;6.050;2023-06-22T03:52:25;16.30;99.90
37412;DHT22;23278;52.110;6.050;2023-06-22T03:54:51;16.30;99.90
37412;DHT22;23278;52.110;6.050;2023-06-22T03:57:17;16.30;99.90
37412;DHT22;23278;52.110;6.050;2023-06-22T03:59:43;16.30;99.90
37412;DHT22;23278;52.110;6.050;2023-06-22T04:02:09;16.30;99.90
37412;DHT22;23278;52.110;6.050;2023-06-22T04:04:35;16.30;99.90
37412;DHT22;23278;52.110;6.050;2023-06-22T04:07:01;16.20;99.90
37412;DHT22;23278;52.110;6.050;2023-06-22T04:09:27;16.30;99.90
37412;DHT22;23278;52.110;6.050;2023-06-22T04:11:52;16.30;99.90
37412;DHT22;23278;52.110;6.050;2023-06-22T04:14:19;16.30;99.90
37412;DHT22;23278;52.110;6.050;2023-06-22T04:16:44;16.30;99.90
37412;DHT22;23278;52.110;6.050;2023-06-22T04:19:10;16.30;99.90
37412;DHT22;23278;52.110;6.050;2023-06-22T04:21:42;16.30;99.90
37412;DHT22;23278;52.110;6.050;2023-06-22T04:24:08;16.30;99.90
37412;DHT22;23278;52.110;6.050;2023-06-22T04:26:34;16.30;99.90
37412;DHT22;23278;52.110;6.050;2023-06-22T04:29:06;16.40;99.90
37412;DHT22;23278;52.110;6.050;2023-06-22T04:31:32;16.40;99.90
37412;DHT22;23278;52.110;6.050;2023-06-22T04:34:03;16.40;99.90
37412;DHT22;23278;52.110;6.050;2023-06-22T04:36:34;16.40;99.90
37412;DHT22;23278;52.110;6.050;2023-06-22T04:39:10;16.50;99.90
37412;DHT22;23278;52.110;6.050;2023-06-22T04:41:40;16.50;99.90
37412;DHT22;23278;52.110;6.050;2023-06-22T04:44:10;16.60;99.90
37412;DHT22;23278;52.110;6.050;2023-06-22T04:46:37;16.60;99.90
37412;DHT22;23278;52.110;6.050;2023-06-22T04:49:08;16.70;99.90
37412;DHT22;23278;52.110;6.050;2023-06-22T04:51:40;16.70;99.90
37412;DHT22;23278;52.110;6.050;2023-06-22T04:54:07;16.80;99.90
37412;DHT22;23278;52.110;6.050;2023-06-22T04:56:33;16.90;99.90
37412;DHT22;23278;52.110;6.050;2023-06-22T04:58:59;16.90;99.90
37412;DHT22;23278;52.110;6.050;2023-06-22T05:01:25;17.00;99.90
37412;DHT22;23278;52.110;6.050;2023-06-22T05:03:51;17.00;99.90
37412;DHT22;23278;52.110;6.050;2023-06-22T05:06:28;17.10;99.90
37412;DHT22;23278;52.110;6.050;2023-06-22T05:08:54;17.10;99.90
37412;DHT22;23278;52.110;6.050;2023-06-22T05:11:28;17.10;99.90
37412;DHT22;23278;52.110;6.050;2023-06-22T05:13:54;17.20;99.90
37412;DHT22;23278;52.110;6.050;2023-06-22T05:16:21;17.30;99.90
37412;DHT22;23278;52.110;6.050;2023-06-22T05:18:56;17.30;99.90
37412;DHT22;23278;52.110;6.050;2023-06-22T05:21:25;17.40;99.90
37412;DHT22;23278;52.110;6.050;2023-06-22T05:23:52;17.40;99.90
37412;DHT22;23278;52.110;6.050;2023-06-22T05:26:21;17.50;99.90
37412;DHT22;23278;52.110;6.050;2023-06-22T05:28:47;17.60;99.90
37412;DHT22;23278;52.110;6.050;2023-06-22T05:31:14;17.70;99.90
37412;DHT22;23278;52.110;6.050;2023-06-22T05:33:41;17.70;99.90
37412;DHT22;23278;52.110;6.050;2023-06-22T05:36:10;17.80;99.90
37412;DHT22;23278;52.110;6.050;2023-06-22T05:38:36;17.90;99.90
37412;DHT22;23278;52.110;6.050;2023-06-22T05:41:02;17.90;99.90
37412;DHT22;23278;52.110;6.050;2023-06-22T05:43:28;18.00;99.90
37412;DHT22;23278;52.110;6.050;2023-06-22T05:45:54;18.00;99.90
37412;DHT22;23278;52.110;6.050;2023-06-22T05:48:20;18.20;99.90
37412;DHT22;23278;52.110;6.050;2023-06-22T05:50:46;18.20;99.90
37412;DHT22;23278;52.110;6.050;2023-06-22T05:53:12;18.30;99.90
37412;DHT22;23278;52.110;6.050;2023-06-22T05:55:38;18.50;99.90
37412;DHT22;23278;52.110;6.050;2023-06-22T05:58:04;18.50;99.90
37412;DHT22;23278;52.110;6.050;2023-06-22T06:00:31;18.60;99.90
37412;DHT22;23278;52.110;6.050;2023-06-22T06:02:57;18.70;99.90
37412;DHT22;23278;52.110;6.050;2023-06-22T06:05:32;18.70;99.90
37412;DHT22;23278;52.110;6.050;2023-06-22T06:08:00;18.80;99.90
37412;DHT22;23278;52.110;6.050;2023-06-22T06:10:26;18.90;99.90
37412;DHT22;23278;52.110;6.050;2023-06-22T06:12:52;19.10;99.90
37412;DHT22;23278;52.110;6.050;2023-06-22T06:15:18;19.20;99.90
37412;DHT22;23278;52.110;6.050;2023-06-22T06:17:51;19.30;99.90
37412;DHT22;23278;52.110;6.050;2023-06-22T06:20:23;19.40;99.90
37412;DHT22;23278;52.110;6.050;2023-06-22T06:22:50;19.50;99.90
37412;DHT22;23278;52.110;6.050;2023-06-22T06:25:16;19.60;99.90
37412;DHT22;23278;52.110;6.050;2023-06-22T06:27:43;19.70;99.90
37412;DHT22;23278;52.110;6.050;2023-06-22T06:30:11;19.80;99.90
37412;DHT22;23278;52.110;6.050;2023-06-22T06:32:37;19.80;99.90
37412;DHT22;23278;52.110;6.050;2023-06-22T06:35:07;19.90;99.90
37412;DHT22;23278;52.110;6.050;2023-06-22T06:37:37;20.10;99.90
37412;DHT22;23278;52.110;6.050;2023-06-22T06:40:07;20.20;99.90
37412;DHT22;23278;52.110;6.050;2023-06-22T06:42:38;20.30;99.90
37412;DHT22;23278;52.110;6.050;2023-06-22T06:45:16;20.40;99.90
37412;DHT22;23278;52.110;6.050;2023-06-22T06:47:42;20.50;99.90
37412;DHT22;23278;52.110;6.050;2023-06-22T06:50:10;20.60;99.90
37412;DHT22;23278;52.110;6.050;2023-06-22T06:52:36;20.70;99.90
37412;DHT22;23278;52.110;6.050;2023-06-22T06:55:03;20.80;99.90
37412;DHT22;23278;52.110;6.050;2023-06-22T06:57:51;20.90;99.90
37412;DHT22;23278;52.110;6.050;2023-06-22T07:00:18;21.10;99.90
37412;DHT22;23278;52.110;6.050;2023-06-22T07:02:44;21.20;99.90
37412;DHT22;23278;52.110;6.050;2023-06-22T07:05:12;21.30;99.90
37412;DHT22;23278;52.110;6.050;2023-06-22T07:07:38;21.50;99.80
37412;DHT22;23278;52.110;6.050;2023-06-22T07:10:07;21.70;99.30
37412;DHT22;23278;52.110;6.050;2023-06-22T07:12:33;21.80;98.70
37412;DHT22;23278;52.110;6.050;2023-06-22T07:15:07;21.90;98.60
37412;DHT22;23278;52.110;6.050;2023-06-22T07:17:37;22.10;98.40
37412;DHT22;23278;52.110;6.050;2023-06-22T07:20:05;22.20;98.00
37412;DHT22;23278;52.110;6.050;2023-06-22T07:22:36;22.40;97.80
37412;DHT22;23278;52.110;6.050;2023-06-22T07:25:03;22.70;97.60
37412;DHT22;23278;52.110;6.050;2023-06-22T07:27:36;22.90;97.10
37412;DHT22;23278;52.110;6.050;2023-06-22T07:30:04;23.10;96.30
37412;DHT22;23278;52.110;6.050;2023-06-22T07:32:36;23.20;95.80
37412;DHT22;23278;52.110;6.050;2023-06-22T07:35:02;23.40;95.30
37412;DHT22;23278;52.110;6.050;2023-06-22T07:37:29;23.50;94.70
37412;DHT22;23278;52.110;6.050;2023-06-22T07:39:56;23.50;94.10
37412;DHT22;23278;52.110;6.050;2023-06-22T07:42:25;23.50;93.80
37412;DHT22;23278;52.110;6.050;2023-06-22T07:44:51;23.60;93.70
37412;DHT22;23278;52.110;6.050;2023-06-22T07:47:17;23.70;93.40
37412;DHT22;23278;52.110;6.050;2023-06-22T07:49:46;23.90;93.30
37412;DHT22;23278;52.110;6.050;2023-06-22T07:52:12;24.00;93.10
37412;DHT22;23278;52.110;6.050;2023-06-22T07:54:38;24.10;92.70
37412;DHT22;23278;52.110;6.050;2023-06-22T07:57:05;24.30;92.50
37412;DHT22;23278;52.110;6.050;2023-06-22T07:59:31;24.50;92.10
37412;DHT22;23278;52.110;6.050;2023-06-22T08:01:57;24.80;91.30
37412;DHT22;23278;52.110;6.050;2023-06-22T08:04:23;25.20;90.70
37412;DHT22;23278;52.110;6.050;2023-06-22T08:06:49;25.40;89.90
37412;DHT22;23278;52.110;6.050;2023-06-22T08:09:15;25.70;88.30
37412;DHT22;23278;52.110;6.050;2023-06-22T08:11:41;25.90;87.00
37412;DHT22;23278;52.110;6.050;2023-06-22T08:14:07;26.00;84.70
37412;DHT22;23278;52.110;6.050;2023-06-22T08:16:32;26.20;83.30
37412;DHT22;23278;52.110;6.050;2023-06-22T08:18:58;26.40;82.80
37412;DHT22;23278;52.110;6.050;2023-06-22T08:21:24;26.50;81.20
37412;DHT22;23278;52.110;6.050;2023-06-22T08:23:50;26.70;80.00
37412;DHT22;23278;52.110;6.050;2023-06-22T08:26:16;26.80;78.40
37412;DHT22;23278;52.110;6.050;2023-06-22T08:28:42;26.90;77.10
37412;DHT22;23278;52.110;6.050;2023-06-22T08:31:08;26.90;76.80
37412;DHT22;23278;52.110;6.050;2023-06-22T08:33:34;26.90;76.00
37412;DHT22;23278;52.110;6.050;2023-06-22T08:36:00;27.00;75.20
37412;DHT22;23278;52.110;6.050;2023-06-22T08:38:26;27.00;74.70
37412;DHT22;23278;52.110;6.050;2023-06-22T08:40:53;27.10;74.40
37412;DHT22;23278;52.110;6.050;2023-06-22T08:43:18;27.20;74.30
37412;DHT22;23278;52.110;6.050;2023-06-22T08:45:44;27.30;73.30
37412;DHT22;23278;52.110;6.050;2023-06-22T08:48:14;27.40;73.00
37412;DHT22;23278;52.110;6.050;2023-06-22T08:50:40;27.50;71.60
37412;DHT22;23278;52.110;6.050;2023-06-22T08:53:06;27.50;70.70
37412;DHT22;23278;52.110;6.050;2023-06-22T08:55:33;27.60;70.50
37412;DHT22;23278;52.110;6.050;2023-06-22T08:57:59;27.60;69.70
37412;DHT22;23278;52.110;6.050;2023-06-22T09:00:25;27.80;69.70
37412;DHT22;23278;52.110;6.050;2023-06-22T09:02:51;28.00;69.30
37412;DHT22;23278;52.110;6.050;2023-06-22T09:05:17;28.10;67.80
37412;DHT22;23278;52.110;6.050;2023-06-22T09:07:43;28.10;67.10
37412;DHT22;23278;52.110;6.050;2023-06-22T09:10:09;28.10;66.70
37412;DHT22;23278;52.110;6.050;2023-06-22T09:12:35;28.00;67.00
37412;DHT22;23278;52.110;6.050;2023-06-22T09:15:03;28.00;66.10
37412;DHT22;23278;52.110;6.050;2023-06-22T09:17:31;28.00;65.90
37412;DHT22;23278;52.110;6.050;2023-06-22T09:19:57;28.10;65.80
37412;DHT22;23278;52.110;6.050;2023-06-22T09:22:23;28.30;64.40
37412;DHT22;23278;52.110;6.050;2023-06-22T09:24:50;28.50;63.30
37412;DHT22;23278;52.110;6.050;2023-06-22T09:27:16;28.80;62.50
37412;DHT22;23278;52.110;6.050;2023-06-22T09:29:42;29.10;62.00
37412;DHT22;23278;52.110;6.050;2023-06-22T09:32:08;29.50;61.30
37412;DHT22;23278;52.110;6.050;2023-06-22T09:34:34;29.80;61.00
37412;DHT22;23278;52.110;6.050;2023-06-22T09:37:00;30.00;59.40
37412;DHT22;23278;52.110;6.050;2023-06-22T09:39:28;30.00;59.20
37412;DHT22;23278;52.110;6.050;2023-06-22T09:41:54;30.10;58.90
37412;DHT22;23278;52.110;6.050;2023-06-22T09:44:20;30.20;58.00
37412;DHT22;23278;52.110;6.050;2023-06-22T09:46:46;30.30;57.90
37412;DHT22;23278;52.110;6.050;2023-06-22T09:49:12;30.10;57.30
37412;DHT22;23278;52.110;6.050;2023-06-22T09:51:38;30.10;57.80
37412;DHT22;23278;52.110;6.050;2023-06-22T09:54:04;30.20;57.30
37412;DHT22;23278;52.110;6.050;2023-06-22T09:56:29;30.40;56.90
37412;DHT22;23278;52.110;6.050;2023-06-22T09:58:56;30.50;55.50
37412;DHT22;23278;52.110;6.050;2023-06-22T10:01:22;30.60;55.10
37412;DHT22;23278;52.110;6.050;2023-06-22T10:03:48;30.60;53.90
37412;DHT22;23278;52.110;6.050;2023-06-22T10:06:14;30.60;54.00
37412;DHT22;23278;52.110;6.050;2023-06-22T10:08:40;30.50;54.20
37412;DHT22;23278;52.110;6.050;2023-06-22T10:11:06;30.40;54.40
37412;DHT22;23278;52.110;6.050;2023-06-22T10:13:32;30.20;55.00
37412;DHT22;23278;52.110;6.050;2023-06-22T10:15:58;30.00;55.10
37412;DHT22;23278;52.110;6.050;2023-06-22T10:18:24;29.70;54.80
37412;DHT22;23278;52.110;6.050;2023-06-22T10:20:52;29.30;55.80
37412;DHT22;23278;52.110;6.050;2023-06-22T10:23:21;29.00;56.20
37412;DHT22;23278;52.110;6.050;2023-06-22T10:25:47;28.70;56.40
37412;DHT22;23278;52.110;6.050;2023-06-22T10:28:13;28.50;56.90
37412;DHT22;23278;52.110;6.050;2023-06-22T10:30:40;28.40;57.20
37412;DHT22;23278;52.110;6.050;2023-06-22T10:33:09;28.30;57.70
37412;DHT22;23278;52.110;6.050;2023-06-22T10:35:36;28.10;57.90
37412;DHT22;23278;52.110;6.050;2023-06-22T10:38:04;28.00;57.80
37412;DHT22;23278;52.110;6.050;2023-06-22T10:40:30;27.90;57.80
37412;DHT22;23278;52.110;6.050;2023-06-22T10:42:56;27.90;57.90
37412;DHT22;23278;52.110;6.050;2023-06-22T10:45:22;27.80;58.20
37412;DHT22;23278;52.110;6.050;2023-06-22T10:47:48;27.90;58.70
37412;DHT22;23278;52.110;6.050;2023-06-22T10:50:14;27.90;59.00
37412;DHT22;23278;52.110;6.050;2023-06-22T10:52:40;27.80;59.30
37412;DHT22;23278;52.110;6.050;2023-06-22T10:55:08;27.90;59.80
37412;DHT22;23278;52.110;6.050;2023-06-22T10:57:34;28.00;60.10
37412;DHT22;23278;52.110;6.050;2023-06-22T11:00:00;28.10;60.40
37412;DHT22;23278;52.110;6.050;2023-06-22T11:02:26;28.10;60.10
37412;DHT22;23278;52.110;6.050;2023-06-22T11:04:53;28.30;59.80
37412;DHT22;23278;52.110;6.050;2023-06-22T11:07:19;28.40;59.50
37412;DHT22;23278;52.110;6.050;2023-06-22T11:09:45;28.60;59.30
37412;DHT22;23278;52.110;6.050;2023-06-22T11:12:11;28.60;58.90
37412;DHT22;23278;52.110;6.050;2023-06-22T11:14:39;28.60;59.30
37412;DHT22;23278;52.110;6.050;2023-06-22T11:17:05;28.60;58.80
37412;DHT22;23278;52.110;6.050;2023-06-22T11:19:31;28.60;59.00
37412;DHT22;23278;52.110;6.050;2023-06-22T11:21:57;28.50;58.60
37412;DHT22;23278;52.110;6.050;2023-06-22T11:24:23;28.50;58.60
37412;DHT22;23278;52.110;6.050;2023-06-22T11:26:48;28.50;58.60
37412;DHT22;23278;52.110;6.050;2023-06-22T11:29:14;28.60;58.90
37412;DHT22;23278;52.110;6.050;2023-06-22T11:31:40;28.60;58.80
37412;DHT22;23278;52.110;6.050;2023-06-22T11:34:08;28.60;58.50
37412;DHT22;23278;52.110;6.050;2023-06-22T11:36:34;28.60;59.00
37412;DHT22;23278;52.110;6.050;2023-06-22T11:39:01;28.50;59.20
37412;DHT22;23278;52.110;6.050;2023-06-22T11:41:27;28.40;59.70
37412;DHT22;23278;52.110;6.050;2023-06-22T11:43:53;28.40;59.60
37412;DHT22;23278;52.110;6.050;2023-06-22T11:46:19;28.30;59.80
37412;DHT22;23278;52.110;6.050;2023-06-22T11:48:45;28.20;59.90
37412;DHT22;23278;52.110;6.050;2023-06-22T11:51:11;28.10;60.00
37412;DHT22;23278;52.110;6.050;2023-06-22T11:53:37;28.10;60.20
37412;DHT22;23278;52.110;6.050;2023-06-22T11:56:03;28.00;60.40
37412;DHT22;23278;52.110;6.050;2023-06-22T11:58:29;27.90;60.50
37412;DHT22;23278;52.110;6.050;2023-06-22T12:00:54;27.80;60.60
37412;DHT22;23278;52.110;6.050;2023-06-22T12:03:21;27.70;61.10
37412;DHT22;23278;52.110;6.050;2023-06-22T12:05:47;27.60;61.60
37412;DHT22;23278;52.110;6.050;2023-06-22T12:08:13;27.60;62.40
37412;DHT22;23278;52.110;6.050;2023-06-22T12:10:40;27.50;62.10
37412;DHT22;23278;52.110;6.050;2023-06-22T12:13:06;27.50;62.80
37412;DHT22;23278;52.110;6.050;2023-06-22T12:15:31;27.30;63.20
37412;DHT22;23278;52.110;6.050;2023-06-22T12:17:57;27.30;63.60
37412;DHT22;23278;52.110;6.050;2023-06-22T12:20:23;27.30;63.90
37412;DHT22;23278;52.110;6.050;2023-06-22T12:22:49;27.40;64.50
37412;DHT22;23278;52.110;6.050;2023-06-22T12:25:17;27.40;65.30
37412;DHT22;23278;52.110;6.050;2023-06-22T12:27:43;27.30;65.80
37412;DHT22;23278;52.110;6.050;2023-06-22T12:30:09;27.30;66.50
37412;DHT22;23278;52.110;6.050;2023-06-22T12:32:35;27.30;67.30
37412;DHT22;23278;52.110;6.050;2023-06-22T12:35:01;27.20;68.10
37412;DHT22;23278;52.110;6.050;2023-06-22T12:37:27;27.20;68.60
37412;DHT22;23278;52.110;6.050;2023-06-22T12:39:54;27.10;69.00
37412;DHT22;23278;52.110;6.050;2023-06-22T12:42:20;27.00;69.50
37412;DHT22;23278;52.110;6.050;2023-06-22T12:44:46;27.00;70.30
37412;DHT22;23278;52.110;6.050;2023-06-22T12:47:12;26.90;71.00
37412;DHT22;23278;52.110;6.050;2023-06-22T12:49:38;26.80;71.70
37412;DHT22;23278;52.110;6.050;2023-06-22T12:52:13;26.70;72.70
37412;DHT22;23278;52.110;6.050;2023-06-22T12:54:39;26.50;74.10
37412;DHT22;23278;52.110;6.050;2023-06-22T12:57:05;26.40;75.00
37412;DHT22;23278;52.110;6.050;2023-06-22T12:59:31;26.30;75.90
37412;DHT22;23278;52.110;6.050;2023-06-22T13:01:58;26.20;76.40
37412;DHT22;23278;52.110;6.050;2023-06-22T13:04:23;26.10;77.00
37412;DHT22;23278;52.110;6.050;2023-06-22T13:06:49;26.00;77.60
37412;DHT22;23278;52.110;6.050;2023-06-22T13:09:19;25.90;78.40
37412;DHT22;23278;52.110;6.050;2023-06-22T13:11:45;25.70;79.40
37412;DHT22;23278;52.110;6.050;2023-06-22T13:14:11;25.60;80.30
37412;DHT22;23278;52.110;6.050;2023-06-22T13:16:37;25.50;81.10
37412;DHT22;23278;52.110;6.050;2023-06-22T13:19:05;25.40;81.80
37412;DHT22;23278;52.110;6.050;2023-06-22T13:21:31;25.30;82.50
37412;DHT22;23278;52.110;6.050;2023-06-22T13:23:57;25.40;83.00
37412;DHT22;23278;52.110;6.050;2023-06-22T13:26:24;25.40;83.40
37412;DHT22;23278;52.110;6.050;2023-06-22T13:28:50;25.50;83.90
37412;DHT22;23278;52.110;6.050;2023-06-22T13:31:16;25.40;84.30
37412;DHT22;23278;52.110;6.050;2023-06-22T13:33:42;25.40;85.60
37412;DHT22;23278;52.110;6.050;2023-06-22T13:36:10;25.10;87.00
37412;DHT22;23278;52.110;6.050;2023-06-22T13:38:35;24.90;88.00
37412;DHT22;23278;52.110;6.050;2023-06-22T13:41:04;24.80;88.80
37412;DHT22;23278;52.110;6.050;2023-06-22T13:43:33;24.60;89.50
37412;DHT22;23278;52.110;6.050;2023-06-22T13:45:59;24.60;90.20
37412;DHT22;23278;52.110;6.050;2023-06-22T13:48:25;24.50;90.50
37412;DHT22;23278;52.110;6.050;2023-06-22T13:50:52;24.40;90.60
37412;DHT22;23278;52.110;6.050;2023-06-22T13:53:18;24.40;90.80
37412;DHT22;23278;52.110;6.050;2023-06-22T13:55:44;24.50;90.90
37412;DHT22;23278;52.110;6.050;2023-06-22T13:58:10;24.50;90.90
37412;DHT22;23278;52.110;6.050;2023-06-22T14:00:36;24.60;91.20
37412;DHT22;23278;52.110;6.050;2023-06-22T14:03:02;24.60;91.10
37412;DHT22;23278;52.110;6.050;2023-06-22T14:05:28;24.70;91.10
37412;DHT22;23278;52.110;6.050;2023-06-22T14:07:54;24.60;91.20
37412;DHT22;23278;52.110;6.050;2023-06-22T14:10:20;24.50;91.40
37412;DHT22;23278;52.110;6.050;2023-06-22T14:12:46;24.50;91.50
37412;DHT22;23278;52.110;6.050;2023-06-22T14:15:12;24.30;91.50
37412;DHT22;23278;52.110;6.050;2023-06-22T14:17:38;24.10;91.70
37412;DHT22;23278;52.110;6.050;2023-06-22T14:20:04;24.10;91.80
37412;DHT22;23278;52.110;6.050;2023-06-22T14:22:31;23.90;92.10
37412;DHT22;23278;52.110;6.050;2023-06-22T14:24:57;23.80;92.40
37412;DHT22;23278;52.110;6.050;2023-06-22T14:27:24;23.80;92.50
37412;DHT22;23278;52.110;6.050;2023-06-22T14:29:50;23.80;92.90
37412;DHT22;23278;52.110;6.050;2023-06-22T14:32:16;23.60;93.20
37412;DHT22;23278;52.110;6.050;2023-06-22T14:34:45;23.50;93.50
37412;DHT22;23278;52.110;6.050;2023-06-22T14:37:11;23.40;93.80
37412;DHT22;23278;52.110;6.050;2023-06-22T14:39:41;23.30;94.00
37412;DHT22;23278;52.110;6.050;2023-06-22T14:42:19;23.20;94.20
37412;DHT22;23278;52.110;6.050;2023-06-22T14:44:48;23.20;94.60
37412;DHT22;23278;52.110;6.050;2023-06-22T14:47:14;23.10;94.80
37412;DHT22;23278;52.110;6.050;2023-06-22T14:49:40;23.00;95.10
37412;DHT22;23278;52.110;6.050;2023-06-22T14:52:07;22.90;95.30
37412;DHT22;23278;52.110;6.050;2023-06-22T14:54:33;22.90;95.60
37412;DHT22;23278;52.110;6.050;2023-06-22T14:56:59;22.80;95.80
37412;DHT22;23278;52.110;6.050;2023-06-22T14:59:25;22.80;96.10
37412;DHT22;23278;52.110;6.050;2023-06-22T15:01:50;22.70;96.60
37412;DHT22;23278;52.110;6.050;2023-06-22T15:04:16;22.70;97.10
37412;DHT22;23278;52.110;6.050;2023-06-22T15:06:42;22.60;97.20
37412;DHT22;23278;52.110;6.050;2023-06-22T15:09:09;22.60;97.50
37412;DHT22;23278;52.110;6.050;2023-06-22T15:11:35;22.60;98.00
37412;DHT22;23278;52.110;6.050;2023-06-22T15:14:01;22.50;98.10
37412;DHT22;23278;52.110;6.050;2023-06-22T15:16:27;22.50;98.30
37412;DHT22;23278;52.110;6.050;2023-06-22T15:18:53;22.50;98.60
37412;DHT22;23278;52.110;6.050;2023-06-22T15:21:19;22.40;98.70
37412;DHT22;23278;52.110;6.050;2023-06-22T15:23:45;22.40;99.10
37412;DHT22;23278;52.110;6.050;2023-06-22T15:26:11;22.30;99.50
37412;DHT22;23278;52.110;6.050;2023-06-22T15:28:39;22.30;99.60
37412;DHT22;23278;52.110;6.050;2023-06-22T15:31:05;22.20;99.90
37412;DHT22;23278;52.110;6.050;2023-06-22T15:33:32;22.20;99.90